KLEX/LEX METAR and TAF weather

Enter ICAO airport designator
Station Type Date Time Source
KLEX METAR 2022/01/29 12:54 UTC NOAA

KLEX 291254Z 00000KT 10SM BKN019 M13/M16 A3027 RMK AO2 SLP267 T11331161 $


Station Type Date Time Source
KLEX Decoded METAR 2022/01/29 12:54 UTC NOAA

LEXINGTON BLUE GRASS AIRPORT, KY, United States (KLEX) 38-02N 084-36W 300M
Jan 29, 2022 - 07:54 AM EST / 2022.01.29 1254 UTC
Wind: Calm:0
Visibility: 10 mile(s):0
Sky conditions: mostly cloudy
Temperature: 8.1 F (-13.3 C)
Dew Point: 3.0 F (-16.1 C)
Relative Humidity: 79%
Pressure (altimeter): 30.27 in. Hg (1025 hPa)
ob: KLEX 291254Z 00000KT 10SM BKN019 M13/M16 A3027 RMK AO2 SLP267 T11331161
cycle: 13

Station Type Date Time Source
KLEX TAF 2022/01/29 12:22 UTC NOAA

TAF KLEX 291120Z 2912/3012 33005KT P6SM FEW250
FM291800 26008KT P6SM SCT250
FM300000 17008KT P6SM BKN250

Example: see airport list